Time;durP1;ratioP1;P1;durP2;ratioP2;P2;SDS_P1;SDS_P2;PMS_P1;PMS_P2;Temp;Humidity;BMP_temperature;BMP_pressure;BME280_temperature;BME280_humidity;BME280_pressure;Samples;Min_cycle;Max_cycle;Signal;HPM_P1;HPM_P2
2022/03/13 00:02:11;;;;;;;20.10;15.30;;;7.00;99.90;;;;;;5046850;28;20345;-63
2022/03/13 00:04:37;;;;;;;21.55;16.23;;;7.00;99.90;;;;;;5045784;28;20048;-63
2022/03/13 00:07:09;;;;;;;20.55;15.25;;;6.90;99.90;;;;;;5044267;28;20058;-63
2022/03/13 00:09:37;;;;;;;21.40;15.30;;;6.90;99.90;;;;;;5046255;28;20051;-63
2022/03/13 00:12:04;;;;;;;20.27;15.00;;;6.90;99.90;;;;;;5051425;28;20397;-66
2022/03/13 00:14:31;;;;;;;19.52;15.48;;;6.80;99.90;;;;;;5038447;28;20055;-65
2022/03/13 00:16:57;;;;;;;20.42;15.20;;;6.80;99.90;;;;;;5031962;28;20044;-65
2022/03/13 00:19:24;;;;;;;21.73;16.45;;;6.80;99.90;;;;;;5038989;28;20057;-65
2022/03/13 00:21:52;;;;;;;21.98;15.95;;;6.80;99.90;;;;;;5031998;28;20052;-64
2022/03/13 00:24:22;;;;;;;21.45;15.55;;;6.80;99.90;;;;;;5044050;28;20053;-63
2022/03/13 00:26:49;;;;;;;25.42;16.10;;;6.70;99.90;;;;;;5051579;28;20052;-65
2022/03/13 00:29:15;;;;;;;22.63;16.23;;;6.80;99.90;;;;;;5039718;28;20056;-63
2022/03/13 00:31:40;;;;;;;20.90;15.60;;;6.70;99.90;;;;;;5041817;28;20041;-63
2022/03/13 00:34:07;;;;;;;20.25;15.77;;;6.70;99.90;;;;;;5037623;28;20041;-65
2022/03/13 00:36:32;;;;;;;19.35;14.98;;;6.70;99.90;;;;;;5060758;28;20045;-64
2022/03/13 00:38:58;;;;;;;20.70;15.02;;;6.70;99.90;;;;;;5038562;28;20496;-64
2022/03/13 00:41:24;;;;;;;20.92;15.10;;;6.60;99.90;;;;;;5041779;28;20533;-64
2022/03/13 00:43:49;;;;;;;19.45;15.05;;;6.60;99.90;;;;;;5052153;28;20041;-65
2022/03/13 00:46:15;;;;;;;22.67;15.80;;;6.60;99.90;;;;;;5050959;28;20049;-63
2022/03/13 00:48:41;;;;;;;22.95;14.73;;;6.60;99.90;;;;;;5044685;28;20049;-64
2022/03/13 00:51:07;;;;;;;24.05;15.90;;;6.60;99.90;;;;;;5045564;28;20044;-65
2022/03/13 00:53:32;;;;;;;21.20;15.25;;;6.60;99.90;;;;;;5049035;28;20080;-64
2022/03/13 00:55:58;;;;;;;21.67;16.30;;;6.70;99.90;;;;;;5035900;28;20125;-64
2022/03/13 00:58:24;;;;;;;21.77;16.20;;;6.70;99.90;;;;;;5041277;28;20057;-64
2022/03/13 01:00:49;;;;;;;23.85;16.00;;;6.70;99.90;;;;;;5036691;28;20048;-63
2022/03/13 01:03:37;;;;;;;20.40;15.55;;;6.70;99.90;;;;;;5037796;28;20053;-64
2022/03/13 01:06:07;;;;;;;21.88;15.57;;;6.70;99.90;;;;;;5023771;28;20045;-63
2022/03/13 01:08:33;;;;;;;21.63;15.43;;;6.70;99.90;;;;;;5057278;28;20380;-64
2022/03/13 01:11:00;;;;;;;22.48;15.40;;;6.70;99.90;;;;;;5055901;28;20056;-64
2022/03/13 01:13:26;;;;;;;19.27;15.25;;;6.70;99.90;;;;;;5053644;28;20049;-63
2022/03/13 01:15:59;;;;;;;20.40;15.95;;;6.80;99.90;;;;;;5040447;28;20493;-65
2022/03/13 01:18:25;;;;;;;22.02;15.43;;;6.70;99.90;;;;;;5045577;28;20056;-64
2022/03/13 01:20:51;;;;;;;19.25;14.75;;;6.70;99.90;;;;;;5042217;28;20404;-64
2022/03/13 01:23:17;;;;;;;24.85;17.00;;;6.70;99.90;;;;;;5047779;28;20071;-63
2022/03/13 01:25:43;;;;;;;21.25;16.30;;;6.70;99.90;;;;;;5045163;28;20045;-65
2022/03/13 01:28:08;;;;;;;21.23;16.73;;;6.70;99.90;;;;;;5032459;28;20056;-64
2022/03/13 01:30:34;;;;;;;21.00;16.17;;;6.70;99.90;;;;;;5038383;28;20041;-64
2022/03/13 01:33:00;;;;;;;22.05;16.02;;;6.70;99.90;;;;;;5053397;28;20440;-64
2022/03/13 01:35:26;;;;;;;21.33;16.52;;;6.70;99.90;;;;;;5051471;28;20116;-65
2022/03/13 01:37:52;;;;;;;21.10;16.45;;;6.70;99.90;;;;;;5025759;28;20041;-64
2022/03/13 01:40:21;;;;;;;24.83;16.15;;;6.60;99.90;;;;;;5043469;28;20477;-64
2022/03/13 01:42:48;;;;;;;25.85;16.48;;;6.70;99.90;;;;;;5053996;28;20102;-64
2022/03/13 01:45:17;;;;;;;20.85;15.55;;;6.70;99.90;;;;;;5054199;28;20056;-64
2022/03/13 01:47:43;;;;;;;24.50;16.42;;;6.70;99.90;;;;;;5053681;28;20053;-64
2022/03/13 01:50:10;;;;;;;20.08;15.30;;;6.70;99.90;;;;;;5052886;28;20495;-65
2022/03/13 01:52:40;;;;;;;21.17;15.77;;;6.70;99.90;;;;;;5037309;28;20377;-64
2022/03/13 01:55:07;;;;;;;20.55;15.32;;;6.80;99.90;;;;;;5040380;28;20184;-64
2022/03/13 01:57:33;;;;;;;20.40;14.65;;;6.80;99.90;;;;;;5044857;28;20053;-64
2022/03/13 02:00:00;;;;;;;20.48;15.70;;;6.80;99.90;;;;;;5044418;28;20040;-64
2022/03/13 02:02:29;;;;;;;22.45;15.95;;;6.80;99.90;;;;;;5042411;28;20045;-64
2022/03/13 02:04:56;;;;;;;24.65;16.50;;;6.80;99.90;;;;;;5054963;28;20090;-64
2022/03/13 02:07:23;;;;;;;20.88;15.38;;;6.90;99.90;;;;;;5043004;28;20055;-63
2022/03/13 02:09:50;;;;;;;21.75;16.55;;;6.90;99.90;;;;;;5056178;28;20377;-64
2022/03/13 02:12:18;;;;;;;19.90;14.88;;;6.90;99.90;;;;;;5053233;28;20049;-64
2022/03/13 02:14:44;;;;;;;21.02;15.80;;;6.90;99.90;;;;;;5053845;28;20152;-63
2022/03/13 02:17:10;;;;;;;22.20;15.98;;;6.90;99.90;;;;;;5052499;28;20524;-64
2022/03/13 02:19:35;;;;;;;20.90;15.35;;;6.90;99.90;;;;;;5052759;28;20045;-64
2022/03/13 02:22:01;;;;;;;20.25;15.68;;;6.80;99.90;;;;;;5045743;28;20431;-65
2022/03/13 02:24:28;;;;;;;22.48;16.85;;;6.80;99.90;;;;;;5051626;28;20136;-64
2022/03/13 02:27:08;;;;;;;23.08;16.13;;;6.80;99.90;;;;;;5035697;28;20132;-63
2022/03/13 02:29:34;;;;;;;21.45;16.17;;;6.70;99.90;;;;;;5051687;28;20489;-64
2022/03/13 02:32:00;;;;;;;22.38;16.55;;;6.70;99.90;;;;;;5049477;28;20041;-64
2022/03/13 02:34:27;;;;;;;21.42;16.40;;;6.70;99.90;;;;;;5038175;28;20120;-65
2022/03/13 02:37:00;;;;;;;21.17;15.70;;;6.60;99.90;;;;;;5055034;28;20083;-65
2022/03/13 02:39:26;;;;;;;24.60;16.60;;;6.60;99.90;;;;;;5053704;28;20056;-64
2022/03/13 02:41:52;;;;;;;21.58;16.40;;;6.60;99.90;;;;;;5053088;28;20500;-64
2022/03/13 02:44:18;;;;;;;21.30;16.15;;;6.60;99.90;;;;;;5052965;28;20076;-63
2022/03/13 02:47:05;;;;;;;21.08;16.92;;;6.50;99.90;;;;;;5052388;28;20107;-65
2022/03/13 02:49:31;;;;;;;20.85;15.93;;;6.60;99.90;;;;;;5051254;28;20049;-64
2022/03/13 02:52:00;;;;;;;21.38;15.93;;;6.50;99.90;;;;;;5061454;28;20126;-65
2022/03/13 02:54:27;;;;;;;20.08;15.82;;;6.50;99.90;;;;;;5059553;28;20056;-65
2022/03/13 02:56:53;;;;;;;20.38;16.17;;;6.50;99.90;;;;;;5046562;28;20083;-63
2022/03/13 02:59:20;;;;;;;23.38;16.45;;;6.50;99.90;;;;;;5051365;28;20049;-63
2022/03/13 03:01:46;;;;;;;23.33;17.08;;;6.40;99.90;;;;;;5059907;28;20131;-63
2022/03/13 03:04:12;;;;;;;20.92;15.73;;;6.40;99.90;;;;;;5052356;28;20358;-63
2022/03/13 03:06:47;;;;;;;24.00;16.77;;;6.40;99.90;;;;;;5049086;28;20056;-63
2022/03/13 03:09:16;;;;;;;21.52;16.70;;;6.40;99.90;;;;;;5034853;28;20475;-66
2022/03/13 03:11:41;;;;;;;22.85;17.15;;;6.30;99.90;;;;;;5037556;28;20041;-64
2022/03/13 03:14:07;;;;;;;22.90;16.92;;;6.30;99.90;;;;;;5045039;28;20045;-64
2022/03/13 03:16:33;;;;;;;21.88;17.27;;;6.30;99.90;;;;;;5043679;28;20128;-63
2022/03/13 03:18:58;;;;;;;22.83;16.17;;;6.30;99.90;;;;;;5035244;28;20045;-64
2022/03/13 03:21:25;;;;;;;21.15;15.00;;;6.30;99.90;;;;;;5034681;28;20037;-65
2022/03/13 03:23:50;;;;;;;25.65;17.20;;;6.30;99.90;;;;;;5066628;28;20044;-65
2022/03/13 03:26:16;;;;;;;21.20;16.27;;;6.30;99.90;;;;;;5050147;28;20543;-64
2022/03/13 03:28:43;;;;;;;21.50;16.63;;;6.30;99.90;;;;;;5033657;28;20140;-65
2022/03/13 03:31:08;;;;;;;21.55;15.90;;;6.20;99.90;;;;;;5038553;28;20094;-64
2022/03/13 03:33:34;;;;;;;24.33;16.55;;;6.20;99.90;;;;;;5046810;28;20052;-65
2022/03/13 03:35:59;;;;;;;23.88;16.58;;;6.20;99.90;;;;;;5053938;28;20051;-64
2022/03/13 03:38:25;;;;;;;22.77;16.92;;;6.20;99.90;;;;;;5050846;28;20041;-64
2022/03/13 03:40:51;;;;;;;22.60;16.95;;;6.10;99.90;;;;;;5049613;28;20063;-65
2022/03/13 03:43:17;;;;;;;22.00;16.27;;;6.00;99.90;;;;;;5050061;28;20045;-64
2022/03/13 03:45:43;;;;;;;21.20;15.07;;;6.00;99.90;;;;;;5052082;28;20060;-65
2022/03/13 03:48:09;;;;;;;24.73;17.05;;;6.00;99.90;;;;;;5046746;28;20131;-67
2022/03/13 03:50:34;;;;;;;23.52;16.58;;;5.90;99.90;;;;;;5032326;28;20052;-64
2022/03/13 03:53:00;;;;;;;24.73;16.08;;;5.90;99.90;;;;;;5046383;28;20041;-65
2022/03/13 03:55:26;;;;;;;21.33;15.93;;;5.80;99.90;;;;;;5037959;28;20115;-64
2022/03/13 03:57:53;;;;;;;23.55;17.45;;;5.80;99.90;;;;;;5050683;28;20053;-63
2022/03/13 04:00:19;;;;;;;19.90;16.05;;;5.80;99.90;;;;;;5036093;28;20055;-64
2022/03/13 04:02:45;;;;;;;23.00;17.88;;;5.70;99.90;;;;;;5045890;28;20041;-62
2022/03/13 04:05:11;;;;;;;23.52;17.45;;;5.70;99.90;;;;;;5032865;28;20107;-64
2022/03/13 04:07:37;;;;;;;21.55;16.15;;;5.70;99.90;;;;;;5064559;28;20468;-64
2022/03/13 04:10:09;;;;;;;21.13;16.13;;;5.60;99.90;;;;;;5050353;28;20049;-64
2022/03/13 04:12:35;;;;;;;21.90;16.40;;;5.70;99.90;;;;;;5049997;28;20102;-63
2022/03/13 04:15:04;;;;;;;20.90;15.75;;;5.70;99.90;;;;;;5052036;28;20044;-65
2022/03/13 04:17:30;;;;;;;22.13;15.77;;;5.70;99.90;;;;;;5036363;28;20474;-63
2022/03/13 04:19:57;;;;;;;22.05;15.57;;;5.60;99.90;;;;;;5052895;28;20048;-62
2022/03/13 04:22:22;;;;;;;20.45;15.63;;;5.60;99.90;;;;;;5045184;28;20100;-64
2022/03/13 04:24:48;;;;;;;22.73;15.93;;;5.60;99.90;;;;;;5050209;28;20072;-64
2022/03/13 04:27:13;;;;;;;25.42;15.63;;;5.60;99.90;;;;;;5040659;28;20117;-64
2022/03/13 04:29:40;;;;;;;20.27;15.65;;;5.60;99.90;;;;;;5041112;28;20080;-63
2022/03/13 04:32:08;;;;;;;20.77;15.50;;;5.60;99.90;;;;;;5043526;28;20049;-63
2022/03/13 04:34:34;;;;;;;24.13;17.33;;;5.60;99.90;;;;;;5059700;28;20037;-65
2022/03/13 04:37:00;;;;;;;23.02;15.88;;;5.60;99.90;;;;;;5035862;28;20065;-65
2022/03/13 04:39:26;;;;;;;22.45;15.27;;;5.60;99.90;;;;;;5054614;28;20045;-64
2022/03/13 04:41:52;;;;;;;25.35;15.93;;;5.50;99.90;;;;;;5045399;28;20042;-64
2022/03/13 04:44:19;;;;;;;23.40;15.68;;;5.60;99.90;;;;;;5031483;28;20045;-64
2022/03/13 04:46:44;;;;;;;21.63;15.80;;;5.50;99.90;;;;;;5048641;28;20424;-64
2022/03/13 04:49:10;;;;;;;21.35;15.18;;;6.00;99.90;;;;;;5037701;28;20103;-62
2022/03/13 04:51:37;;;;;;;22.30;16.42;;;5.50;99.90;;;;;;5045582;28;20372;-64
2022/03/13 04:54:03;;;;;;;23.88;15.43;;;5.50;99.90;;;;;;5047891;28;20037;-64
2022/03/13 04:56:29;;;;;;;22.08;14.90;;;5.40;99.90;;;;;;5035881;28;20091;-64
2022/03/13 04:58:54;;;;;;;22.88;15.90;;;5.30;99.90;;;;;;5051784;28;20334;-64
2022/03/13 05:01:20;;;;;;;23.50;16.27;;;5.20;99.90;;;;;;5049961;28;20053;-65
2022/03/13 05:03:46;;;;;;;26.52;16.48;;;5.20;99.90;;;;;;5049337;28;20120;-63
2022/03/13 05:06:12;;;;;;;25.23;16.48;;;5.10;99.90;;;;;;5032489;28;20187;-65
2022/03/13 05:08:40;;;;;;;24.95;16.35;;;5.10;99.90;;;;;;5035056;28;20073;-65
2022/03/13 05:11:06;;;;;;;23.27;15.65;;;5.00;99.90;;;;;;5048986;28;20094;-65
2022/03/13 05:13:33;;;;;;;25.40;16.58;;;5.00;99.90;;;;;;5040119;28;20049;-64
2022/03/13 05:15:59;;;;;;;20.00;15.13;;;5.00;99.90;;;;;;5046526;28;20466;-63
2022/03/13 05:18:25;;;;;;;21.33;15.70;;;4.90;99.90;;;;;;5035411;28;20045;-63
2022/03/13 05:20:50;;;;;;;24.20;15.57;;;4.90;99.90;;;;;;5038043;28;20088;-61
2022/03/13 05:23:16;;;;;;;22.30;15.75;;;4.90;99.90;;;;;;5064689;28;20494;-61
2022/03/13 05:25:42;;;;;;;22.42;15.25;;;4.90;99.90;;;;;;5031977;28;20052;-63
2022/03/13 05:28:09;;;;;;;22.02;15.18;;;4.90;99.90;;;;;;5109611;22;20121;-62
2022/03/13 05:30:36;;;;;;;19.92;15.35;;;4.80;99.90;;;;;;5026934;28;20053;-63
2022/03/13 05:33:01;;;;;;;22.85;15.20;;;4.90;99.90;;;;;;5029970;28;20133;-63
2022/03/13 05:35:27;;;;;;;20.27;15.70;;;4.80;99.90;;;;;;5014503;28;20133;-64
2022/03/13 05:37:53;;;;;;;22.13;15.45;;;4.80;99.90;;;;;;5014247;28;20060;-64
2022/03/13 05:40:20;;;;;;;20.27;14.13;;;4.80;99.90;;;;;;5017045;28;20056;-64
2022/03/13 05:42:56;;;;;;;20.88;14.75;;;4.80;99.90;;;;;;5034045;28;20050;-65
2022/03/13 05:45:25;;;;;;;22.35;14.82;;;4.80;99.90;;;;;;5024228;28;20060;-66
2022/03/13 05:47:58;;;;;;;22.40;15.23;;;4.80;99.90;;;;;;5034661;28;20080;-64
2022/03/13 05:50:28;;;;;;;20.23;14.70;;;4.90;99.90;;;;;;5031529;28;20065;-63
2022/03/13 05:52:56;;;;;;;21.80;16.23;;;4.90;99.90;;;;;;5034024;28;20053;-65
2022/03/13 05:55:23;;;;;;;21.27;14.88;;;4.90;99.90;;;;;;5027237;28;20049;-63
2022/03/13 05:57:49;;;;;;;19.10;14.30;;;5.00;99.90;;;;;;5030828;28;20060;-63
2022/03/13 06:00:15;;;;;;;21.33;13.60;;;5.00;99.90;;;;;;5028898;28;20038;-63
2022/03/13 06:02:47;;;;;;;20.20;14.82;;;5.00;99.90;;;;;;5023649;28;20429;-63
2022/03/13 06:05:15;;;;;;;21.15;14.77;;;5.10;99.90;;;;;;5030470;28;20080;-66
2022/03/13 06:07:41;;;;;;;24.05;15.00;;;5.10;99.90;;;;;;5022525;28;20379;-64
2022/03/13 06:10:08;;;;;;;22.30;14.52;;;5.10;99.90;;;;;;5024653;28;20042;-64
2022/03/13 06:12:34;;;;;;;20.27;14.60;;;5.10;99.90;;;;;;5033079;28;20413;-64
2022/03/13 06:15:01;;;;;;;18.58;13.80;;;5.10;99.90;;;;;;5029929;28;20049;-63
2022/03/13 06:17:27;;;;;;;19.35;14.05;;;5.20;99.90;;;;;;5033943;28;20057;-63
2022/03/13 06:19:55;;;;;;;19.80;13.80;;;5.20;99.90;;;;;;5015880;28;20064;-62
2022/03/13 06:22:22;;;;;;;20.13;13.43;;;5.20;99.90;;;;;;5032392;28;20053;-62
2022/03/13 06:24:47;;;;;;;22.90;14.25;;;5.30;99.90;;;;;;5030450;28;20052;-65
2022/03/13 06:27:14;;;;;;;18.63;13.80;;;5.20;99.90;;;;;;5025365;28;20049;-63
2022/03/13 06:29:41;;;;;;;18.40;14.35;;;5.30;99.90;;;;;;5018283;28;20195;-63
2022/03/13 06:32:07;;;;;;;20.60;13.60;;;5.30;99.90;;;;;;5032307;28;20045;-61
2022/03/13 06:34:33;;;;;;;19.65;13.88;;;5.30;99.90;;;;;;5031327;28;20049;-64
2022/03/13 06:36:58;;;;;;;17.52;13.38;;;5.30;99.90;;;;;;5031538;28;20070;-62
2022/03/13 06:39:24;;;;;;;20.05;14.00;;;5.40;99.90;;;;;;5018382;28;20052;-64
2022/03/13 06:41:51;;;;;;;17.42;12.80;;;5.50;99.90;;;;;;5021889;28;20050;-63
2022/03/13 06:44:19;;;;;;;18.13;13.20;;;5.50;99.90;;;;;;5043814;28;20133;-63
2022/03/13 06:46:47;;;;;;;18.17;13.52;;;5.60;99.90;;;;;;5033427;28;20053;-62
2022/03/13 06:49:15;;;;;;;19.90;13.23;;;5.50;99.90;;;;;;5027909;28;20124;-63
2022/03/13 06:51:41;;;;;;;18.85;13.52;;;5.60;99.90;;;;;;5025150;28;20080;-64
2022/03/13 06:54:11;;;;;;;20.58;12.98;;;5.60;99.90;;;;;;5027893;28;20489;-63
2022/03/13 06:56:40;;;;;;;18.58;14.02;;;5.70;99.90;;;;;;5024893;28;20386;-63
2022/03/13 06:59:06;;;;;;;17.17;13.25;;;5.70;99.90;;;;;;5031565;28;20433;-64
2022/03/13 07:01:33;;;;;;;19.50;13.35;;;5.80;99.90;;;;;;5031845;28;20103;-63
2022/03/13 07:04:00;;;;;;;17.13;13.70;;;5.80;99.90;;;;;;5025296;28;20061;-63
2022/03/13 07:06:26;;;;;;;18.15;13.93;;;5.90;99.90;;;;;;5032913;28;20080;-64
2022/03/13 07:08:52;;;;;;;18.95;13.80;;;5.90;99.90;;;;;;5025841;28;20492;-64
2022/03/13 07:11:17;;;;;;;17.30;13.45;;;6.00;99.90;;;;;;5043823;28;20045;-63
2022/03/13 07:13:44;;;;;;;18.33;12.95;;;6.10;99.90;;;;;;5018816;28;20105;-66
2022/03/13 07:16:10;;;;;;;16.52;12.73;;;6.20;99.90;;;;;;5032358;28;20072;-64
2022/03/13 07:18:37;;;;;;;22.15;13.73;;;6.30;99.90;;;;;;5015796;28;20092;-64
2022/03/13 07:21:03;;;;;;;20.23;13.45;;;6.40;99.90;;;;;;5032363;28;20046;-64
2022/03/13 07:23:31;;;;;;;16.20;12.93;;;6.50;99.90;;;;;;5033835;28;20114;-64
2022/03/13 07:25:57;;;;;;;19.50;13.45;;;6.60;99.90;;;;;;5033373;28;20132;-64
2022/03/13 07:28:22;;;;;;;16.95;12.88;;;6.70;99.90;;;;;;5032185;28;20065;-65
2022/03/13 07:30:48;;;;;;;20.95;13.73;;;6.70;99.90;;;;;;5032281;28;20068;-63
2022/03/13 07:33:14;;;;;;;17.77;13.70;;;6.80;99.90;;;;;;5032355;28;20401;-64
2022/03/13 07:35:40;;;;;;;18.35;14.05;;;6.90;99.90;;;;;;5032881;28;20494;-63
2022/03/13 07:38:05;;;;;;;17.88;13.35;;;6.90;99.90;;;;;;5032430;28;20080;-63
2022/03/13 07:40:31;;;;;;;19.08;14.13;;;7.10;99.90;;;;;;5033126;28;20093;-63
2022/03/13 07:42:57;;;;;;;17.00;12.93;;;7.20;99.90;;;;;;5031951;28;20081;-64
2022/03/13 07:45:24;;;;;;;18.27;13.93;;;7.40;99.90;;;;;;5031956;28;20041;-65
2022/03/13 07:47:50;;;;;;;15.95;12.88;;;7.60;99.90;;;;;;5043024;28;20057;-63
2022/03/13 07:50:16;;;;;;;17.35;12.90;;;8.00;99.90;;;;;;5032777;28;20157;-65
2022/03/13 07:52:43;;;;;;;18.40;12.93;;;7.90;99.90;;;;;;5032309;28;20046;-65
2022/03/13 07:55:09;;;;;;;18.13;12.43;;;8.00;99.90;;;;;;5032770;28;20136;-63
2022/03/13 07:57:35;;;;;;;16.30;12.98;;;8.10;99.90;;;;;;5031525;28;20068;-63
2022/03/13 08:00:00;;;;;;;18.38;13.85;;;8.10;99.90;;;;;;5032436;28;20132;-62
2022/03/13 08:02:26;;;;;;;18.63;12.80;;;8.20;99.90;;;;;;5031608;28;20030;-64
2022/03/13 08:04:52;;;;;;;17.98;12.95;;;8.20;99.90;;;;;;5032685;28;20045;-64
2022/03/13 08:07:18;;;;;;;15.50;12.50;;;8.30;99.90;;;;;;5031397;28;20045;-66
2022/03/13 08:09:43;;;;;;;18.13;13.02;;;8.40;99.90;;;;;;5031661;28;20041;-64
2022/03/13 08:12:09;;;;;;;18.95;12.52;;;8.40;99.90;;;;;;5030750;28;20084;-65
2022/03/13 08:14:35;;;;;;;17.40;13.43;;;8.50;99.90;;;;;;5031187;28;20065;-64
2022/03/13 08:17:01;;;;;;;18.92;12.55;;;8.50;99.90;;;;;;5031609;28;20060;-65
2022/03/13 08:19:26;;;;;;;18.90;13.18;;;8.60;99.90;;;;;;5032236;28;20049;-64
2022/03/13 08:21:52;;;;;;;16.80;12.75;;;8.70;99.90;;;;;;5031729;28;20064;-63
2022/03/13 08:24:18;;;;;;;15.07;12.05;;;8.80;99.90;;;;;;5033200;28;20099;-63
2022/03/13 08:26:43;;;;;;;17.27;12.27;;;9.00;99.90;;;;;;5014764;28;20045;-64
2022/03/13 08:29:10;;;;;;;20.77;12.68;;;9.00;99.90;;;;;;5031240;28;20154;-65
2022/03/13 08:31:37;;;;;;;15.05;11.85;;;9.10;99.90;;;;;;5028478;28;20072;-65
2022/03/13 08:34:07;;;;;;;17.80;12.73;;;9.20;99.90;;;;;;5030519;28;20397;-64
2022/03/13 08:36:33;;;;;;;15.55;12.63;;;9.30;99.90;;;;;;5030977;28;20073;-63
2022/03/13 08:38:59;;;;;;;16.63;12.52;;;9.30;99.90;;;;;;5030242;28;20048;-62
2022/03/13 08:41:25;;;;;;;16.48;11.80;;;9.40;99.90;;;;;;5030278;28;20397;-64
2022/03/13 08:43:50;;;;;;;16.42;12.38;;;9.50;99.90;;;;;;5031108;28;20124;-64
2022/03/13 08:46:17;;;;;;;15.20;12.13;;;9.50;99.90;;;;;;5030563;28;20045;-62
2022/03/13 08:48:44;;;;;;;16.45;11.88;;;9.60;99.90;;;;;;5012739;28;20050;-67
2022/03/13 08:51:12;;;;;;;18.15;12.75;;;9.60;98.70;;;;;;5031492;28;20046;-64
2022/03/13 08:53:38;;;;;;;17.00;11.60;;;9.70;98.90;;;;;;5014690;28;20084;-63
2022/03/13 08:56:04;;;;;;;16.20;11.65;;;9.80;97.80;;;;;;5030318;28;20053;-64
2022/03/13 08:58:30;;;;;;;15.80;12.05;;;10.00;95.80;;;;;;5030144;28;20103;-63
2022/03/13 09:00:56;;;;;;;15.30;11.70;;;10.00;91.10;;;;;;5030505;28;20057;-64
2022/03/13 09:03:22;;;;;;;18.38;11.68;;;10.10;88.10;;;;;;5005700;28;20050;-63
2022/03/13 09:05:48;;;;;;;17.75;11.45;;;10.20;83.20;;;;;;5030397;28;20050;-64
2022/03/13 09:08:15;;;;;;;15.07;11.30;;;10.20;76.00;;;;;;5032331;28;20049;-67
2022/03/13 09:10:41;;;;;;;16.63;11.77;;;10.30;80.00;;;;;;5031589;28;20504;-63
2022/03/13 09:13:07;;;;;;;15.57;12.25;;;10.40;77.50;;;;;;5013740;28;20049;-64
2022/03/13 09:15:33;;;;;;;14.50;12.07;;;10.40;78.30;;;;;;5034438;28;20410;-64
2022/03/13 09:18:02;;;;;;;16.42;11.30;;;10.50;77.00;;;;;;5036043;28;20045;-63
2022/03/13 09:20:28;;;;;;;13.90;11.38;;;10.60;75.60;;;;;;5034665;28;20402;-63
2022/03/13 09:22:54;;;;;;;14.38;11.45;;;10.70;74.20;;;;;;5035043;28;20498;-64
2022/03/13 09:25:20;;;;;;;14.25;11.52;;;10.80;71.00;;;;;;5034280;28;20133;-63
2022/03/13 09:27:46;;;;;;;17.70;11.35;;;10.80;70.50;;;;;;5034764;28;20121;-63
2022/03/13 09:30:12;;;;;;;14.43;11.43;;;10.90;68.80;;;;;;5035385;28;20115;-63
2022/03/13 09:32:38;;;;;;;18.05;12.75;;;11.00;68.30;;;;;;5034517;28;20053;-62
2022/03/13 09:35:04;;;;;;;15.30;11.73;;;11.10;69.00;;;;;;5034788;28;20118;-64
2022/03/13 09:37:30;;;;;;;13.57;11.23;;;11.20;67.00;;;;;;5034849;28;20107;-63
2022/03/13 09:39:56;;;;;;;16.27;11.50;;;11.30;67.80;;;;;;5034063;28;20053;-65
2022/03/13 09:42:22;;;;;;;14.77;11.45;;;11.40;68.30;;;;;;5033833;28;20045;-64
2022/03/13 09:44:47;;;;;;;18.33;12.75;;;11.50;69.20;;;;;;5034386;28;20045;-65
2022/03/13 09:47:13;;;;;;;13.68;10.85;;;11.60;68.60;;;;;;5034034;28;20049;-65
2022/03/13 09:49:42;;;;;;;15.50;11.50;;;11.70;68.00;;;;;;5034559;28;20046;-63
2022/03/13 09:52:09;;;;;;;14.70;11.95;;;11.80;67.00;;;;;;5034142;28;20116;-63
2022/03/13 09:54:38;;;;;;;16.67;12.32;;;11.90;65.90;;;;;;5034188;28;20076;-62
2022/03/13 09:57:04;;;;;;;17.13;11.90;;;12.00;65.50;;;;;;5033950;28;20045;-64
2022/03/13 09:59:30;;;;;;;17.27;12.07;;;12.10;66.00;;;;;;5035342;28;20538;-64
2022/03/13 10:01:56;;;;;;;14.82;11.40;;;12.20;65.80;;;;;;5034631;28;20080;-65
2022/03/13 10:04:21;;;;;;;15.95;12.20;;;12.20;64.80;;;;;;5035018;28;20484;-63
2022/03/13 10:07:04;;;;;;;20.17;12.30;;;12.10;64.20;;;;;;5033715;28;20489;-64
2022/03/13 10:09:31;;;;;;;15.48;11.52;;;12.20;64.20;;;;;;5033462;28;20103;-63
2022/03/13 10:12:06;;;;;;;17.75;11.95;;;12.20;63.80;;;;;;5033039;28;20045;-63
2022/03/13 10:14:32;;;;;;;15.95;11.48;;;12.40;64.60;;;;;;5033905;28;20524;-65
2022/03/13 10:16:58;;;;;;;17.38;12.10;;;12.40;64.40;;;;;;5034079;28;20087;-64
2022/03/13 10:19:27;;;;;;;18.90;12.45;;;12.50;65.00;;;;;;5033957;28;20076;-63
2022/03/13 10:22:07;;;;;;;17.45;11.93;;;12.50;63.80;;;;;;5033748;28;20077;-64
2022/03/13 10:24:44;;;;;;;14.32;11.63;;;12.70;63.90;;;;;;5032684;28;20052;-63
2022/03/13 10:27:18;;;;;;;14.70;12.13;;;12.70;62.70;;;;;;5031031;28;20049;-63
2022/03/13 10:29:48;;;;;;;17.08;12.75;;;12.80;63.40;;;;;;5030626;28;20490;-63
2022/03/13 10:32:14;;;;;;;17.88;11.45;;;13.00;62.80;;;;;;5033423;28;20106;-66
2022/03/13 10:34:41;;;;;;;15.45;12.27;;;13.00;62.60;;;;;;5035017;28;20049;-64
2022/03/13 10:37:08;;;;;;;13.52;11.77;;;13.00;62.20;;;;;;5033536;28;20056;-64
2022/03/13 10:39:34;;;;;;;19.17;12.15;;;13.00;61.50;;;;;;5033834;28;20053;-64
2022/03/13 10:42:02;;;;;;;15.43;12.00;;;13.00;62.00;;;;;;5034518;28;20379;-65
2022/03/13 10:44:34;;;;;;;15.00;11.88;;;13.10;61.70;;;;;;5035005;28;20124;-65
2022/03/13 10:47:04;;;;;;;;;;;13.20;61.80;;;;;;5033833;28;20085;-63
2022/03/13 10:49:44;;;;;;;16.23;12.70;;;13.20;62.70;;;;;;5017219;28;20391;-66
2022/03/13 10:52:28;;;;;;;15.45;12.65;;;13.40;62.10;;;;;;5033481;28;20124;-66
2022/03/13 10:54:55;;;;;;;16.48;12.40;;;13.50;61.20;;;;;;5033316;28;20064;-65
2022/03/13 10:57:21;;;;;;;17.45;12.18;;;13.50;61.90;;;;;;5032992;28;20053;-65
2022/03/13 11:00:09;;;;;;;16.55;12.10;;;13.70;61.40;;;;;;5031899;28;20130;-64
2022/03/13 11:02:34;;;;;;;16.17;12.35;;;13.90;60.80;;;;;;5023530;28;20421;-66
2022/03/13 11:05:00;;;;;;;16.52;13.23;;;14.00;60.40;;;;;;5033521;28;20042;-65
2022/03/13 11:07:27;;;;;;;14.55;11.73;;;14.20;60.20;;;;;;5032222;28;20427;-65
2022/03/13 11:09:54;;;;;;;16.15;12.45;;;14.30;59.00;;;;;;5029694;28;20359;-65
2022/03/13 11:12:23;;;;;;;15.95;12.70;;;14.50;58.80;;;;;;5031081;28;20057;-65
2022/03/13 11:15:00;;;;;;;14.32;12.73;;;14.30;58.60;;;;;;5033153;28;20056;-66
2022/03/13 11:17:33;;;;;;;18.42;13.45;;;14.40;58.80;;;;;;5032072;28;20080;-65
2022/03/13 11:19:59;;;;;;;;;;;14.50;57.40;;;;;;5034271;28;20119;-65
2022/03/13 11:22:28;;;;;;;16.80;12.82;;;14.50;55.60;;;;;;5066099;28;20011;-65
2022/03/13 11:25:08;;;;;;;16.75;13.27;;;14.50;58.10;;;;;;5032141;28;20045;-64
2022/03/13 11:27:38;;;;;;;15.77;12.43;;;14.60;56.50;;;;;;5033309;28;20081;-65
2022/03/13 11:30:06;;;;;;;16.00;13.05;;;14.80;57.70;;;;;;5031454;28;20049;-65
2022/03/13 11:32:41;;;;;;;16.52;12.25;;;14.80;56.40;;;;;;5032267;28;20389;-66
2022/03/13 11:35:16;;;;;;;15.30;12.52;;;14.80;56.70;;;;;;5015566;28;20103;-65
2022/03/13 11:38:04;;;;;;;15.45;12.85;;;15.00;57.10;;;;;;5029246;28;20064;-65
2022/03/13 11:40:35;;;;;;;15.95;13.07;;;15.10;55.30;;;;;;5020350;28;20061;-65
2022/03/13 11:43:12;;;;;;;15.90;11.90;;;15.10;55.60;;;;;;5028873;28;20045;-64
2022/03/13 11:45:40;;;;;;;17.15;12.70;;;15.20;55.70;;;;;;5031853;28;20382;-67
2022/03/13 11:48:13;;;;;;;16.88;13.25;;;15.20;56.10;;;;;;5032346;28;20049;-67
2022/03/13 11:50:58;;;;;;;15.20;12.18;;;15.20;55.10;;;;;;5032287;28;20136;-65
2022/03/13 11:53:40;;;;;;;16.23;13.65;;;15.20;54.50;;;;;;5031817;28;20056;-64
2022/03/13 11:56:07;;;;;;;16.30;12.98;;;15.30;54.70;;;;;;5030320;28;20053;-65
2022/03/13 11:58:43;;;;;;;17.98;13.50;;;15.20;54.70;;;;;;5031088;28;20076;-66
2022/03/13 12:01:38;;;;;;;18.38;13.32;;;15.30;54.30;;;;;;5028699;28;20053;-64
2022/03/13 12:04:04;;;;;;;16.17;13.32;;;15.30;54.70;;;;;;5023393;28;20482;-64
2022/03/13 12:06:39;;;;;;;17.23;13.25;;;15.30;54.20;;;;;;5018941;28;20099;-63
2022/03/13 12:09:11;;;;;;;18.83;12.65;;;15.20;54.10;;;;;;5012171;28;20100;-66
2022/03/13 12:11:42;;;;;;;15.30;12.68;;;15.20;54.20;;;;;;5021756;28;20049;-65
2022/03/13 12:14:12;;;;;;;17.23;12.95;;;15.30;54.90;;;;;;5028482;28;20049;-65
2022/03/13 12:16:41;;;;;;;15.80;13.25;;;15.30;55.00;;;;;;5028330;28;20053;-64
2022/03/13 12:19:07;;;;;;;16.35;12.98;;;15.40;54.70;;;;;;5032025;28;20334;-64
2022/03/13 12:21:33;;;;;;;16.77;12.80;;;15.50;55.00;;;;;;5031819;28;20050;-63
2022/03/13 12:24:15;;;;;;;17.83;13.70;;;15.50;54.80;;;;;;5031218;28;20053;-65
2022/03/13 12:26:46;;;;;;;19.52;13.88;;;15.70;54.50;;;;;;5028105;28;20107;-65
2022/03/13 12:29:18;;;;;;;14.15;12.65;;;15.70;54.40;;;;;;5027744;28;20137;-64
2022/03/13 12:31:48;;;;;;;18.67;13.73;;;15.70;53.90;;;;;;5028920;28;20053;-64
2022/03/13 12:34:26;;;;;;;15.82;12.55;;;15.70;54.40;;;;;;5029249;28;20049;-65
2022/03/13 12:36:53;;;;;;;15.98;12.73;;;15.80;53.80;;;;;;5028014;28;20068;-65
2022/03/13 12:39:20;;;;;;;14.80;12.15;;;15.90;55.00;;;;;;5031686;28;20057;-64